createdAt,value
2019-05-11T00:02:20.997Z,7.40
2019-05-11T00:04:51.646Z,7.40
2019-05-11T00:07:22.759Z,7.30
2019-05-11T00:09:57.935Z,7.40
2019-05-11T00:12:25.828Z,7.40
2019-05-11T00:14:56.587Z,7.40
2019-05-11T00:17:27.261Z,7.50
2019-05-11T00:19:58.000Z,7.50
2019-05-11T00:22:28.941Z,7.50
2019-05-11T00:24:59.709Z,7.50
2019-05-11T00:27:30.747Z,7.50
2019-05-11T00:30:01.461Z,7.50
2019-05-11T00:32:32.649Z,7.50
2019-05-11T00:35:03.504Z,7.50
2019-05-11T00:37:34.484Z,7.40
2019-05-11T00:40:14.037Z,7.50
2019-05-11T00:42:38.286Z,7.40
2019-05-11T00:45:09.468Z,7.40
2019-05-11T00:47:40.150Z,7.30
2019-05-11T00:50:11.691Z,7.30
2019-05-11T00:52:42.401Z,7.20
2019-05-11T00:55:13.185Z,7.10
2019-05-11T00:57:43.984Z,7.00
2019-05-11T01:00:14.835Z,7.00
2019-05-11T01:02:45.859Z,6.90
2019-05-11T01:05:16.841Z,6.90
2019-05-11T01:07:47.638Z,6.80
2019-05-11T01:10:25.674Z,6.80
2019-05-11T01:12:50.699Z,6.90
2019-05-11T01:15:21.525Z,6.90
2019-05-11T01:17:52.240Z,6.90
2019-05-11T01:20:23.312Z,6.80
2019-05-11T01:22:54.030Z,6.80
2019-05-11T01:25:24.717Z,6.80
2019-05-11T01:27:55.521Z,6.80
2019-05-11T01:30:26.157Z,6.70
2019-05-11T01:32:56.946Z,6.70
2019-05-11T01:35:27.615Z,6.60
2019-05-11T01:37:58.307Z,6.60
2019-05-11T01:40:29.035Z,6.50
2019-05-11T01:42:59.884Z,6.40
2019-05-11T01:45:30.533Z,6.40
2019-05-11T01:48:01.192Z,6.40
2019-05-11T01:50:31.875Z,6.40
2019-05-11T01:53:02.537Z,6.40
2019-05-11T01:55:33.214Z,6.40
2019-05-11T01:58:03.934Z,6.40
2019-05-11T02:00:34.830Z,6.30
2019-05-11T02:03:05.505Z,6.20
2019-05-11T02:05:36.695Z,6.10
2019-05-11T02:08:07.401Z,6.10
2019-05-11T02:10:38.585Z,6.00
2019-05-11T02:13:09.247Z,5.90
2019-05-11T02:15:40.724Z,5.90
2019-05-11T02:18:11.377Z,5.90
2019-05-11T02:20:42.626Z,5.90
2019-05-11T02:23:14.159Z,5.90
2019-05-11T02:25:44.848Z,5.90
2019-05-11T02:28:15.538Z,5.90
2019-05-11T02:30:46.197Z,5.80
2019-05-11T02:33:16.967Z,5.80
2019-05-11T02:35:47.637Z,5.80
2019-05-11T02:38:18.401Z,5.80
2019-05-11T02:40:49.095Z,5.80
2019-05-11T02:43:19.825Z,5.80
2019-05-11T02:45:50.526Z,5.80
2019-05-11T02:48:21.278Z,5.80
2019-05-11T02:50:53.293Z,5.80
2019-05-11T02:53:24.656Z,5.80
2019-05-11T02:55:55.983Z,5.80
2019-05-11T02:58:26.759Z,5.70
2019-05-11T03:00:57.566Z,5.70
2019-05-11T03:03:28.248Z,5.50
2019-05-11T03:05:58.955Z,5.40
2019-05-11T03:08:29.658Z,5.40
2019-05-11T03:11:00.377Z,5.40
2019-05-11T03:13:31.084Z,5.50
2019-05-11T03:16:01.831Z,5.50
2019-05-11T03:18:33.127Z,5.60
2019-05-11T03:21:03.874Z,5.50
2019-05-11T03:23:34.932Z,5.60
2019-05-11T03:26:05.671Z,5.60
2019-05-11T03:28:36.903Z,5.60
2019-05-11T03:31:07.587Z,5.70
2019-05-11T03:33:38.863Z,5.70
2019-05-11T03:36:09.609Z,5.80
2019-05-11T03:38:40.365Z,5.60
2019-05-11T03:41:12.200Z,5.60
2019-05-11T03:43:42.904Z,5.70
2019-05-11T03:46:13.664Z,5.80
2019-05-11T03:48:44.505Z,6.00
2019-05-11T03:51:15.178Z,6.10
2019-05-11T03:53:45.863Z,6.20
2019-05-11T03:56:16.832Z,6.30
2019-05-11T03:58:47.512Z,6.40
2019-05-11T04:01:18.161Z,6.50
2019-05-11T04:03:50.346Z,6.60
2019-05-11T04:06:21.042Z,6.60
2019-05-11T04:08:51.751Z,6.70
2019-05-11T04:11:22.516Z,6.80
2019-05-11T04:13:53.231Z,6.90
2019-05-11T04:16:23.936Z,7.00
2019-05-11T04:18:54.642Z,7.20
2019-05-11T04:21:25.308Z,7.20
2019-05-11T04:23:56.036Z,7.30
2019-05-11T04:26:26.725Z,7.30
2019-05-11T04:28:57.419Z,7.40
2019-05-11T04:31:28.128Z,7.50
2019-05-11T04:33:58.810Z,7.60
2019-05-11T04:36:29.463Z,7.60
2019-05-11T04:39:00.552Z,7.60
2019-05-11T04:41:31.859Z,7.70
2019-05-11T04:44:02.541Z,7.70
2019-05-11T04:46:33.270Z,7.70
2019-05-11T04:49:03.946Z,7.80
2019-05-11T04:51:35.237Z,7.90
2019-05-11T04:54:05.990Z,7.90
2019-05-11T04:56:36.674Z,8.00
2019-05-11T04:59:07.328Z,8.10
2019-05-11T05:01:38.988Z,8.20
2019-05-11T05:04:14.593Z,8.40
2019-05-11T05:06:58.616Z,8.50
2019-05-11T05:09:17.022Z,8.70
2019-05-11T05:11:47.673Z,8.80
2019-05-11T05:14:18.682Z,9.00
2019-05-11T05:16:49.366Z,9.30
2019-05-11T05:19:20.032Z,9.50
2019-05-11T05:21:50.682Z,9.70
2019-05-11T05:24:21.384Z,9.80
2019-05-11T05:26:52.044Z,9.90
2019-05-11T05:29:22.725Z,10.00
2019-05-11T05:31:53.445Z,10.30
2019-05-11T05:34:24.096Z,10.50
2019-05-11T05:36:54.774Z,10.70
2019-05-11T05:39:25.503Z,10.60
2019-05-11T05:41:57.488Z,10.70
2019-05-11T05:44:28.801Z,10.70
2019-05-11T05:46:59.471Z,10.70
2019-05-11T05:49:30.127Z,10.70
2019-05-11T05:52:00.842Z,10.70
2019-05-11T05:54:31.494Z,10.60
2019-05-11T05:57:02.276Z,10.70
2019-05-11T05:59:32.953Z,10.60
2019-05-11T06:02:03.625Z,10.60
2019-05-11T06:04:34.256Z,10.60
2019-05-11T06:07:04.972Z,10.60
2019-05-11T06:09:35.642Z,10.80
2019-05-11T06:12:06.331Z,10.80
2019-05-11T06:14:37.031Z,10.80
2019-05-11T06:17:07.690Z,11.00
2019-05-11T06:19:38.380Z,11.00
2019-05-11T06:22:09.206Z,11.30
2019-05-11T06:24:40.878Z,11.80
2019-05-11T06:27:11.558Z,11.90
2019-05-11T06:29:42.886Z,12.20
2019-05-11T06:32:14.134Z,12.50
2019-05-11T06:34:45.302Z,12.60
2019-05-11T06:37:16.075Z,12.60
2019-05-11T06:39:46.943Z,12.80
2019-05-11T06:42:17.763Z,13.00
2019-05-11T06:44:48.506Z,13.10
2019-05-11T06:47:19.297Z,13.10
2019-05-11T06:49:49.970Z,13.20
2019-05-11T06:52:20.818Z,13.50
2019-05-11T06:54:51.543Z,13.70
2019-05-11T06:57:22.226Z,14.00
2019-05-11T06:59:52.900Z,13.90
2019-05-11T07:02:23.526Z,14.10
2019-05-11T07:04:54.187Z,14.10
2019-05-11T07:07:24.903Z,14.30
2019-05-11T07:09:55.577Z,14.40
2019-05-11T07:12:27.767Z,14.40
2019-05-11T07:14:58.619Z,14.30
2019-05-11T07:17:29.309Z,14.30
2019-05-11T07:20:00.003Z,14.40
2019-05-11T07:22:30.679Z,14.60
2019-05-11T07:25:01.334Z,14.80
2019-05-11T07:27:31.964Z,14.70
2019-05-11T07:30:02.671Z,14.70
2019-05-11T07:32:33.304Z,15.10
2019-05-11T07:35:04.509Z,15.20
2019-05-11T07:37:35.154Z,15.20
2019-05-11T07:40:08.101Z,15.30
2019-05-11T07:42:39.094Z,15.40
2019-05-11T07:45:11.013Z,15.30
2019-05-11T07:47:48.570Z,15.10
2019-05-11T07:50:20.267Z,15.20
2019-05-11T07:52:51.641Z,15.00
2019-05-11T07:55:22.397Z,15.10
2019-05-11T07:57:53.027Z,15.10
2019-05-11T08:00:24.185Z,15.10
2019-05-11T08:02:54.881Z,15.20
2019-05-11T08:05:25.657Z,15.10
2019-05-11T08:07:56.430Z,15.30
2019-05-11T08:10:28.161Z,15.70
2019-05-11T08:12:59.015Z,15.80
2019-05-11T08:15:29.738Z,15.90
2019-05-11T08:18:00.416Z,15.60
2019-05-11T08:20:31.087Z,15.90
2019-05-11T08:23:01.715Z,16.00
2019-05-11T08:25:33.016Z,16.10
2019-05-11T08:28:03.679Z,16.00
2019-05-11T08:30:34.386Z,15.90
2019-05-11T08:33:05.122Z,15.40
2019-05-11T08:35:35.839Z,15.60
2019-05-11T08:38:08.654Z,15.70
2019-05-11T08:40:38.948Z,16.00
2019-05-11T08:43:10.114Z,16.00
2019-05-11T08:45:42.127Z,16.20
2019-05-11T08:48:12.955Z,15.80
2019-05-11T08:50:43.652Z,16.00
2019-05-11T08:53:14.792Z,16.20
2019-05-11T08:55:45.470Z,15.90
2019-05-11T08:58:19.121Z,16.30
2019-05-11T09:00:49.391Z,16.30
2019-05-11T09:03:20.024Z,16.20
2019-05-11T09:05:50.954Z,15.90
2019-05-11T09:08:21.641Z,16.20
2019-05-11T09:10:52.721Z,16.10
2019-05-11T09:13:23.410Z,16.10
2019-05-11T09:15:54.819Z,16.20
2019-05-11T09:18:27.424Z,16.30
2019-05-11T09:20:57.865Z,16.60
2019-05-11T09:23:36.303Z,16.90
2019-05-11T09:26:01.116Z,16.90
2019-05-11T09:28:32.307Z,16.90
2019-05-11T09:31:02.953Z,16.80
2019-05-11T09:33:33.870Z,16.80
2019-05-11T09:36:04.537Z,16.90
2019-05-11T09:38:35.406Z,16.70
2019-05-11T09:41:08.951Z,16.80
2019-05-11T09:43:38.580Z,16.30
2019-05-11T09:46:09.366Z,16.20
2019-05-11T09:48:41.196Z,16.60
2019-05-11T09:51:11.868Z,16.90
2019-05-11T09:53:42.576Z,17.30
2019-05-11T09:56:13.646Z,17.40
2019-05-11T09:58:45.039Z,17.80
2019-05-11T10:01:18.015Z,17.80
2019-05-11T10:03:48.450Z,18.00
2019-05-11T10:06:19.288Z,17.90
2019-05-11T10:08:49.988Z,18.00
2019-05-11T10:11:20.775Z,18.00
2019-05-11T10:13:51.465Z,18.00
2019-05-11T10:16:22.114Z,18.30
2019-05-11T10:18:52.743Z,18.30
2019-05-11T10:21:23.393Z,18.60
2019-05-11T10:23:54.258Z,18.60
2019-05-11T10:26:24.980Z,18.40
2019-05-11T10:28:58.563Z,18.20
2019-05-11T10:31:31.242Z,18.60
2019-05-11T10:34:01.877Z,18.70
2019-05-11T10:36:32.604Z,18.80
2019-05-11T10:39:03.351Z,18.50
2019-05-11T10:41:34.712Z,18.10
2019-05-11T10:44:05.423Z,18.20
2019-05-11T10:46:38.063Z,18.20
2019-05-11T10:49:08.511Z,18.30
2019-05-11T10:51:39.924Z,18.50
2019-05-11T10:54:10.623Z,18.70
2019-05-11T10:56:41.353Z,18.50
2019-05-11T10:59:15.590Z,18.80
2019-05-11T11:01:45.558Z,18.90
2019-05-11T11:04:18.387Z,19.00
2019-05-11T11:06:48.734Z,18.70
2019-05-11T11:09:19.390Z,18.60
2019-05-11T11:11:50.083Z,18.60
2019-05-11T11:14:20.865Z,18.40
2019-05-11T11:16:51.647Z,18.40
2019-05-11T11:19:22.319Z,18.50
2019-05-11T11:21:52.981Z,18.50
2019-05-11T11:24:24.117Z,18.70
2019-05-11T11:26:54.744Z,19.00
2019-05-11T11:29:25.441Z,18.90
2019-05-11T11:31:56.018Z,18.70
2019-05-11T11:34:28.019Z,18.50
2019-05-11T11:36:59.397Z,18.10
2019-05-11T11:39:30.067Z,17.90
2019-05-11T11:42:01.151Z,18.00
2019-05-11T11:44:31.873Z,17.80
2019-05-11T11:47:03.690Z,17.70
2019-05-11T11:49:34.478Z,18.00
2019-05-11T11:52:05.207Z,17.90
2019-05-11T11:54:35.832Z,18.10
2019-05-11T11:57:07.734Z,18.00
2019-05-11T11:59:38.697Z,17.70
2019-05-11T12:02:09.435Z,17.80
2019-05-11T12:04:40.058Z,17.90
2019-05-11T12:07:10.768Z,17.90
2019-05-11T12:09:42.298Z,17.80
2019-05-11T12:12:13.956Z,17.60
2019-05-11T12:14:48.008Z,17.60
2019-05-11T12:17:19.635Z,17.40
2019-05-11T12:19:51.603Z,17.40
2019-05-11T12:22:23.045Z,17.50
2019-05-11T12:24:54.457Z,17.30
2019-05-11T12:27:28.540Z,17.40
2019-05-11T12:29:59.063Z,17.30
2019-05-11T12:32:41.488Z,17.50
2019-05-11T12:35:13.168Z,17.40
2019-05-11T12:37:43.909Z,17.40
2019-05-11T12:40:15.097Z,17.30
2019-05-11T12:42:45.787Z,17.40
2019-05-11T12:45:18.400Z,17.50
2019-05-11T12:47:49.170Z,17.20
2019-05-11T12:50:20.296Z,17.40
2019-05-11T12:52:56.086Z,17.60
2019-05-11T12:55:28.640Z,17.60
2019-05-11T12:57:59.082Z,17.70
2019-05-11T13:00:31.375Z,17.50
2019-05-11T13:03:03.134Z,17.70
2019-05-11T13:05:33.809Z,17.80
2019-05-11T13:08:04.860Z,17.80
2019-05-11T13:10:37.470Z,17.80
2019-05-11T13:13:08.903Z,17.70
2019-05-11T13:15:40.394Z,17.70
2019-05-11T13:18:11.120Z,17.40
2019-05-11T13:20:41.876Z,17.30
2019-05-11T13:23:13.317Z,17.30
2019-05-11T13:25:44.029Z,17.60
2019-05-11T13:28:14.728Z,17.60
2019-05-11T13:30:45.419Z,17.50
2019-05-11T13:33:16.083Z,17.50
2019-05-11T13:35:48.235Z,17.70
2019-05-11T13:38:19.168Z,17.40
2019-05-11T13:40:49.851Z,17.60
2019-05-11T13:43:20.543Z,17.60
2019-05-11T13:45:51.222Z,17.40
2019-05-11T13:48:23.123Z,17.50
2019-05-11T13:50:53.818Z,17.40
2019-05-11T13:53:24.460Z,17.40
2019-05-11T13:55:55.539Z,17.00
2019-05-11T13:58:27.753Z,16.80
2019-05-11T14:00:58.696Z,16.70
2019-05-11T14:03:29.489Z,16.60
2019-05-11T14:06:00.245Z,16.50
2019-05-11T14:08:30.991Z,16.30
2019-05-11T14:11:01.734Z,16.10
2019-05-11T14:13:32.454Z,15.90
2019-05-11T14:16:03.200Z,15.80
2019-05-11T14:18:33.970Z,15.60
2019-05-11T14:21:04.738Z,15.50
2019-05-11T14:23:35.887Z,15.40
2019-05-11T14:26:08.354Z,15.30
2019-05-11T14:28:39.618Z,15.00
2019-05-11T14:31:10.882Z,15.00
2019-05-11T14:33:42.958Z,15.00
2019-05-11T14:36:14.482Z,14.90
2019-05-11T14:38:45.190Z,14.90
2019-05-11T14:41:18.149Z,14.80
2019-05-11T14:43:49.169Z,14.90
2019-05-11T14:46:19.975Z,15.20
2019-05-11T14:48:50.727Z,15.30
2019-05-11T14:51:35.122Z,15.30
2019-05-11T14:54:07.887Z,15.40
2019-05-11T14:56:38.306Z,15.20
2019-05-11T14:59:09.366Z,15.30
2019-05-11T15:01:40.178Z,15.20
2019-05-11T15:04:11.466Z,15.10
2019-05-11T15:06:43.371Z,15.00
2019-05-11T15:09:14.104Z,14.80
2019-05-11T15:11:47.628Z,14.80
2019-05-11T15:14:21.827Z,14.80
2019-05-11T15:16:50.376Z,14.90
2019-05-11T15:19:21.115Z,14.80
2019-05-11T15:21:51.792Z,14.90
2019-05-11T15:24:22.579Z,14.90
2019-05-11T15:26:53.440Z,14.80
2019-05-11T15:29:24.328Z,14.70
2019-05-11T15:31:57.718Z,14.50
2019-05-11T15:34:28.946Z,14.50
2019-05-11T15:37:00.122Z,14.40
2019-05-11T15:39:31.290Z,14.50
2019-05-11T15:42:10.293Z,14.50
2019-05-11T15:44:38.285Z,14.60
2019-05-11T15:47:09.212Z,14.80
2019-05-11T15:49:40.171Z,14.90
2019-05-11T15:52:11.798Z,15.00
2019-05-11T15:54:43.438Z,15.10
2019-05-11T15:57:14.852Z,15.10
2019-05-11T15:59:47.987Z,15.10
2019-05-11T16:02:18.776Z,15.00
2019-05-11T16:04:49.477Z,15.10
2019-05-11T16:07:20.548Z,15.00
2019-05-11T16:09:51.312Z,14.80
2019-05-11T16:12:22.155Z,14.70
2019-05-11T16:14:54.660Z,14.70
2019-05-11T16:17:25.521Z,14.60
2019-05-11T16:19:58.089Z,14.40
2019-05-11T16:22:29.972Z,14.30
2019-05-11T16:25:00.903Z,14.10
2019-05-11T16:27:34.447Z,14.10
2019-05-11T16:30:05.494Z,14.00
2019-05-11T16:32:38.637Z,13.90
2019-05-11T16:35:09.661Z,13.90
2019-05-11T16:37:40.604Z,13.70
2019-05-11T16:40:14.322Z,13.60
2019-05-11T16:42:45.038Z,13.50
2019-05-11T16:45:18.949Z,13.40
2019-05-11T16:47:49.128Z,13.20
2019-05-11T16:50:20.830Z,13.10
2019-05-11T16:52:51.527Z,13.00
2019-05-11T16:55:22.550Z,12.80
2019-05-11T16:57:53.313Z,12.80
2019-05-11T17:00:24.068Z,12.70
2019-05-11T17:02:54.754Z,12.80
2019-05-11T17:05:27.224Z,12.80
2019-05-11T17:07:58.913Z,12.90
2019-05-11T17:10:30.124Z,12.90
2019-05-11T17:13:01.081Z,12.90
2019-05-11T17:15:31.794Z,12.90
2019-05-11T17:18:02.627Z,12.90
2019-05-11T17:20:33.438Z,12.80
2019-05-11T17:23:05.260Z,12.90
2019-05-11T17:25:37.939Z,12.90
2019-05-11T17:28:09.997Z,12.90
2019-05-11T17:30:41.757Z,12.90
2019-05-11T17:33:12.464Z,12.90
2019-05-11T17:35:43.209Z,12.80
2019-05-11T17:38:14.575Z,12.80
2019-05-11T17:40:48.167Z,12.70
2019-05-11T17:43:19.235Z,12.60
2019-05-11T17:45:49.933Z,12.60
2019-05-11T17:48:21.065Z,12.50
2019-05-11T17:50:51.796Z,12.50
2019-05-11T17:53:22.645Z,12.50
2019-05-11T17:55:53.418Z,12.40
2019-05-11T17:58:24.145Z,12.40
2019-05-11T18:00:54.805Z,12.30
2019-05-11T18:03:27.692Z,12.30
2019-05-11T18:05:58.957Z,12.30
2019-05-11T18:08:32.021Z,12.20
2019-05-11T18:11:03.096Z,12.20
2019-05-11T18:13:34.769Z,12.10
2019-05-11T18:16:08.550Z,12.10
2019-05-11T18:18:44.198Z,12.10
2019-05-11T18:21:14.939Z,12.10
2019-05-11T18:23:48.034Z,12.00
2019-05-11T18:26:19.017Z,12.00
2019-05-11T18:28:49.639Z,12.00
2019-05-11T18:31:21.130Z,11.90
2019-05-11T18:33:51.830Z,11.90
2019-05-11T18:36:23.302Z,11.90
2019-05-11T18:38:53.999Z,12.00
2019-05-11T18:41:24.769Z,11.90
2019-05-11T18:43:55.436Z,11.90
2019-05-11T18:46:27.868Z,11.90
2019-05-11T18:48:58.700Z,11.90
2019-05-11T18:51:29.393Z,11.80
2019-05-11T18:54:00.085Z,11.80
2019-05-11T18:56:31.568Z,11.70
2019-05-11T18:59:02.373Z,11.70
2019-05-11T19:01:33.978Z,11.70
2019-05-11T19:04:04.671Z,11.80
2019-05-11T19:06:37.661Z,11.80
2019-05-11T19:09:08.693Z,11.70
2019-05-11T19:11:42.554Z,11.70
2019-05-11T19:14:11.950Z,11.60
2019-05-11T19:16:42.697Z,11.60
2019-05-11T19:19:13.454Z,11.50
2019-05-11T19:21:44.387Z,11.40
2019-05-11T19:24:15.132Z,11.30
2019-05-11T19:26:48.083Z,11.20
2019-05-11T19:29:18.529Z,11.20
2019-05-11T19:31:49.242Z,11.10
2019-05-11T19:34:20.503Z,11.00
2019-05-11T19:36:51.469Z,10.90
2019-05-11T19:39:22.128Z,10.80
2019-05-11T19:41:52.835Z,10.70
2019-05-11T19:44:23.704Z,10.60
2019-05-11T19:46:54.423Z,10.50
2019-05-11T19:49:27.735Z,10.50
2019-05-11T19:51:58.020Z,10.40
2019-05-11T19:54:29.084Z,10.40
2019-05-11T19:56:59.753Z,10.40
2019-05-11T19:59:30.707Z,10.30
2019-05-11T20:02:01.453Z,10.20
2019-05-11T20:04:32.826Z,10.10
2019-05-11T20:07:03.472Z,10.10
2019-05-11T20:09:34.254Z,10.00
2019-05-11T20:12:04.904Z,9.90
2019-05-11T20:14:37.814Z,9.80
2019-05-11T20:17:09.033Z,9.80
2019-05-11T20:19:39.751Z,9.70
2019-05-11T20:22:10.529Z,9.80
2019-05-11T20:25:28.759Z,9.80
2019-05-11T20:27:59.559Z,9.70
2019-05-11T20:30:30.929Z,9.70
2019-05-11T20:33:01.577Z,9.60
2019-05-11T20:35:32.740Z,9.60
2019-05-11T20:38:03.394Z,9.60
2019-05-11T20:40:34.702Z,9.60
2019-05-11T20:43:05.365Z,9.60
2019-05-11T20:45:37.815Z,9.50
2019-05-11T20:48:08.584Z,9.50
2019-05-11T20:50:39.256Z,9.50
2019-05-11T20:53:09.893Z,9.40
2019-05-11T20:55:40.666Z,9.50
2019-05-11T20:58:11.346Z,9.50
2019-05-11T21:00:43.269Z,9.40
2019-05-11T21:03:14.046Z,9.40
2019-05-11T21:05:44.656Z,9.30
2019-05-11T21:08:17.789Z,9.10
2019-05-11T21:10:49.082Z,9.10
2019-05-11T21:13:19.817Z,9.00
2019-05-11T21:15:50.429Z,9.00
2019-05-11T21:18:21.119Z,8.90
2019-05-11T21:20:51.771Z,8.90
2019-05-11T21:23:22.447Z,8.80
2019-05-11T21:25:53.117Z,8.80
2019-05-11T21:28:23.804Z,8.80
2019-05-11T21:30:54.664Z,8.80
2019-05-11T21:33:25.318Z,8.80
2019-05-11T21:35:58.054Z,8.80
2019-05-11T21:38:31.641Z,8.80
2019-05-11T21:41:00.799Z,8.80
2019-05-11T21:43:31.459Z,8.80
2019-05-11T21:46:02.116Z,8.70
2019-05-11T21:48:32.773Z,8.60
2019-05-11T21:51:03.458Z,8.70
2019-05-11T21:53:34.202Z,8.60
2019-05-11T21:56:04.871Z,8.60
2019-05-11T21:58:37.795Z,8.60
2019-05-11T22:01:09.419Z,8.50
2019-05-11T22:03:40.950Z,8.50
2019-05-11T22:06:11.613Z,8.50
2019-05-11T22:08:42.761Z,8.50
2019-05-11T22:11:14.374Z,8.40
2019-05-11T22:13:45.210Z,8.40
2019-05-11T22:16:15.844Z,8.30
2019-05-11T22:18:48.548Z,8.30
2019-05-11T22:21:19.228Z,8.20
2019-05-11T22:23:50.678Z,8.20
2019-05-11T22:26:21.595Z,8.20
2019-05-11T22:28:52.300Z,8.20
2019-05-11T22:31:22.940Z,8.20
2019-05-11T22:33:53.661Z,8.20
2019-05-11T22:36:24.308Z,8.10
2019-05-11T22:38:55.014Z,8.10
2019-05-11T22:41:26.792Z,8.10
2019-05-11T22:43:57.438Z,8.00
2019-05-11T22:46:28.235Z,8.00
2019-05-11T22:48:58.937Z,8.00
2019-05-11T22:51:29.620Z,8.00
2019-05-11T22:54:00.312Z,7.90
2019-05-11T22:56:30.972Z,7.90
2019-05-11T22:59:01.668Z,7.90
2019-05-11T23:01:33.713Z,7.90
2019-05-11T23:04:04.510Z,7.90
2019-05-11T23:06:35.158Z,7.90
2019-05-11T23:09:07.976Z,7.90
2019-05-11T23:11:38.951Z,7.90
2019-05-11T23:14:10.137Z,7.90
2019-05-11T23:16:41.315Z,7.90
2019-05-11T23:19:11.989Z,7.80
2019-05-11T23:21:45.038Z,7.80
2019-05-11T23:24:17.950Z,7.80
2019-05-11T23:26:48.166Z,7.80
2019-05-11T23:29:19.134Z,7.80
2019-05-11T23:31:49.806Z,7.70
2019-05-11T23:34:20.494Z,7.70
2019-05-11T23:36:51.212Z,7.80
2019-05-11T23:39:21.883Z,7.90
2019-05-11T23:41:52.652Z,7.80
2019-05-11T23:44:23.318Z,7.80
2019-05-11T23:46:53.991Z,7.80
2019-05-11T23:49:24.607Z,7.90
2019-05-11T23:51:55.246Z,7.80
2019-05-11T23:54:27.834Z,7.90
2019-05-11T23:56:58.413Z,7.90
2019-05-11T23:59:29.084Z,7.90
